createdAt,value
2023-02-27T00:00:16.504Z,0.60
2023-02-27T00:03:03.132Z,0.40
2023-02-27T00:05:29.668Z,0.80
2023-02-27T00:07:56.117Z,0.80
2023-02-27T00:10:22.534Z,0.40
2023-02-27T00:12:49.055Z,0.40
2023-02-27T00:15:21.381Z,0.40
2023-02-27T00:17:47.913Z,0.50
2023-02-27T00:20:18.044Z,0.10
2023-02-27T00:22:45.360Z,0.20
2023-02-27T00:25:13.211Z,0.10
2023-02-27T00:27:40.405Z,0.10
2023-02-27T00:30:12.173Z,0.10
2023-02-27T00:32:39.884Z,0.30
2023-02-27T00:35:09.486Z,0.10
2023-02-27T00:37:37.223Z,0.20
2023-02-27T00:40:05.684Z,0.10
2023-02-27T00:42:32.657Z,0.10
2023-02-27T00:44:59.126Z,0.20
2023-02-27T00:47:25.510Z,0.30
2023-02-27T00:49:52.055Z,0.10
2023-02-27T00:52:18.550Z,0.20
2023-02-27T00:54:45.016Z,0.10
2023-02-27T00:57:11.410Z,0.20
2023-02-27T00:59:37.907Z,0.30
2023-02-27T01:02:04.540Z,0.20
2023-02-27T01:04:31.212Z,0.10
2023-02-27T01:06:57.639Z,0.30
2023-02-27T01:09:24.503Z,0.20
2023-02-27T01:11:51.532Z,0.10
2023-02-27T01:14:18.755Z,0.20
2023-02-27T01:16:45.457Z,0.10
2023-02-27T01:19:11.922Z,0.00
2023-02-27T01:21:41.377Z,0.10
2023-02-27T01:24:09.526Z,0.00
2023-02-27T01:26:36.454Z,0.20
2023-02-27T01:29:06.215Z,0.10
2023-02-27T01:31:34.282Z,0.20
2023-02-27T01:34:00.936Z,0.20
2023-02-27T01:36:28.652Z,0.20
2023-02-27T01:38:55.090Z,0.20
2023-02-27T01:41:21.945Z,0.20
2023-02-27T01:44:06.754Z,0.20
2023-02-27T01:46:34.880Z,0.20
2023-02-27T01:49:13.852Z,0.30
2023-02-27T01:51:47.189Z,0.30
2023-02-27T01:54:20.445Z,0.30
2023-02-27T01:56:47.649Z,0.20
2023-02-27T01:59:16.528Z,0.30
2023-02-27T02:01:44.106Z,0.20
2023-02-27T02:04:27.221Z,0.20
2023-02-27T02:07:00.384Z,0.20
2023-02-27T02:09:29.081Z,0.20
2023-02-27T02:11:58.712Z,0.10
2023-02-27T02:14:25.232Z,0.20
2023-02-27T02:16:58.823Z,0.20
2023-02-27T02:19:46.467Z,0.20
2023-02-27T02:22:37.369Z,0.20
2023-02-27T02:25:41.256Z,0.10
2023-02-27T02:28:46.887Z,0.00
2023-02-27T02:31:58.948Z,0.10
2023-02-27T02:35:12.309Z,0.20
2023-02-27T02:38:06.145Z,0.30
2023-02-27T02:41:13.199Z,0.20
2023-02-27T02:44:19.475Z,0.40
2023-02-27T02:47:12.478Z,0.10
2023-02-27T02:49:54.965Z,0.40
2023-02-27T02:52:59.268Z,0.50
2023-02-27T02:55:46.497Z,0.30
2023-02-27T02:58:37.540Z,0.60
2023-02-27T03:01:14.966Z,0.60
2023-02-27T03:03:52.130Z,0.30
2023-02-27T03:06:35.879Z,0.50
2023-02-27T03:09:17.795Z,0.80
2023-02-27T03:11:49.895Z,0.20
2023-02-27T03:14:41.375Z,0.50
2023-02-27T03:17:18.816Z,0.30
2023-02-27T03:20:00.827Z,0.30
2023-02-27T03:22:43.017Z,0.40
2023-02-27T03:25:13.242Z,0.50
2023-02-27T03:27:49.883Z,0.30
2023-02-27T03:30:30.082Z,0.50
2023-02-27T03:33:18.279Z,0.40
2023-02-27T03:36:19.594Z,0.40
2023-02-27T03:39:05.026Z,0.50
2023-02-27T03:42:20.143Z,0.80
2023-02-27T03:45:04.635Z,0.70
2023-02-27T03:47:33.712Z,0.60
2023-02-27T03:50:00.269Z,0.60
2023-02-27T03:52:29.452Z,0.60
2023-02-27T03:55:22.386Z,0.60
2023-02-27T03:57:51.845Z,0.40
2023-02-27T04:00:25.149Z,0.60
2023-02-27T04:02:55.466Z,0.50
2023-02-27T04:05:23.199Z,0.50
2023-02-27T04:08:09.959Z,0.80
2023-02-27T04:11:10.622Z,0.70
2023-02-27T04:13:45.940Z,0.80
2023-02-27T04:16:24.689Z,1.00
2023-02-27T04:19:23.339Z,0.90
2023-02-27T04:22:40.294Z,1.00
2023-02-27T04:26:11.967Z,0.70
2023-02-27T04:29:06.460Z,1.20
2023-02-27T04:31:59.738Z,0.90
2023-02-27T04:34:47.206Z,0.40
2023-02-27T04:37:33.218Z,0.90
2023-02-27T04:40:16.391Z,0.80
2023-02-27T04:42:54.377Z,0.90
2023-02-27T04:45:25.643Z,0.70
2023-02-27T04:48:05.109Z,0.90
2023-02-27T04:50:43.120Z,0.80
2023-02-27T04:53:21.284Z,1.30
2023-02-27T04:56:03.546Z,0.90
2023-02-27T04:58:52.158Z,1.40
2023-02-27T05:01:29.806Z,1.00
2023-02-27T05:04:09.127Z,1.90
2023-02-27T05:06:40.769Z,0.90
2023-02-27T05:09:37.871Z,1.10
2023-02-27T05:12:26.597Z,0.80
2023-02-27T05:15:12.489Z,0.90
2023-02-27T05:18:10.153Z,0.80
2023-02-27T05:21:15.386Z,0.90
2023-02-27T05:23:54.571Z,0.90
2023-02-27T05:27:04.481Z,1.00
2023-02-27T05:29:52.129Z,1.60
2023-02-27T05:32:22.380Z,0.70
2023-02-27T05:35:00.781Z,1.30
2023-02-27T05:37:36.436Z,0.80
2023-02-27T05:40:07.948Z,1.20
2023-02-27T05:42:43.347Z,1.90
2023-02-27T05:45:19.024Z,2.00
2023-02-27T05:47:55.445Z,1.90
2023-02-27T05:50:28.646Z,2.50
2023-02-27T05:53:02.442Z,2.30
2023-02-27T05:55:43.381Z,1.70
2023-02-27T05:58:26.640Z,2.00
2023-02-27T06:01:00.749Z,2.10
2023-02-27T06:03:30.493Z,1.30
2023-02-27T06:06:02.447Z,1.40
2023-02-27T06:08:29.172Z,1.90
2023-02-27T06:10:56.044Z,1.10
2023-02-27T06:13:25.469Z,1.00
2023-02-27T06:15:52.583Z,1.70
2023-02-27T06:18:20.124Z,1.20
2023-02-27T06:20:47.191Z,1.20
2023-02-27T06:23:14.447Z,1.00
2023-02-27T06:25:44.217Z,1.10
2023-02-27T06:28:11.388Z,1.20
2023-02-27T06:30:38.270Z,1.00
2023-02-27T06:33:04.816Z,1.30
2023-02-27T06:35:31.442Z,0.60
2023-02-27T06:37:58.163Z,0.80
2023-02-27T06:40:25.676Z,0.90
2023-02-27T06:42:52.288Z,0.90
2023-02-27T06:45:18.876Z,1.10
2023-02-27T06:47:45.512Z,0.80
2023-02-27T06:50:13.371Z,0.80
2023-02-27T06:52:40.511Z,1.00
2023-02-27T06:55:09.195Z,1.30
2023-02-27T06:57:35.640Z,1.10
2023-02-27T07:00:06.426Z,1.60
2023-02-27T07:02:32.908Z,1.90
2023-02-27T07:04:59.429Z,1.30
2023-02-27T07:07:33.173Z,1.10
2023-02-27T07:10:06.853Z,1.00
2023-02-27T07:12:33.649Z,1.20
2023-02-27T07:15:00.203Z,0.90
2023-02-27T07:17:26.962Z,1.20
2023-02-27T07:19:53.949Z,0.90
2023-02-27T07:22:20.602Z,1.10
2023-02-27T07:24:47.110Z,1.00
2023-02-27T07:27:13.710Z,0.90
2023-02-27T07:29:40.140Z,0.70
2023-02-27T07:32:06.654Z,0.90
2023-02-27T07:34:33.064Z,1.00
2023-02-27T07:36:59.499Z,0.90
2023-02-27T07:39:25.893Z,1.10
2023-02-27T07:41:52.304Z,0.90
2023-02-27T07:44:18.794Z,0.70
2023-02-27T07:46:46.726Z,0.50
2023-02-27T07:49:14.020Z,0.80
2023-02-27T07:51:40.745Z,0.40
2023-02-27T07:54:07.496Z,0.60
2023-02-27T07:56:34.836Z,1.20
2023-02-27T07:59:01.741Z,0.70
2023-02-27T08:01:28.271Z,1.10
2023-02-27T08:03:55.925Z,1.20
2023-02-27T08:06:23.619Z,1.10
2023-02-27T08:08:51.782Z,1.40
2023-02-27T08:11:18.747Z,1.40
2023-02-27T08:14:02.436Z,1.10
2023-02-27T08:16:31.583Z,1.10
2023-02-27T08:18:59.918Z,0.80
2023-02-27T08:21:27.356Z,0.90
2023-02-27T08:23:54.166Z,0.90
2023-02-27T08:26:21.623Z,0.90
2023-02-27T08:28:48.234Z,1.20
2023-02-27T08:31:14.703Z,1.00
2023-02-27T08:33:41.176Z,1.20
2023-02-27T08:36:09.433Z,1.60
2023-02-27T08:38:35.875Z,1.20
2023-02-27T08:41:03.101Z,1.30
2023-02-27T08:43:29.558Z,0.60
2023-02-27T08:45:55.982Z,1.10
2023-02-27T08:48:24.216Z,0.80
2023-02-27T08:50:51.936Z,0.70
2023-02-27T08:53:18.956Z,0.30
2023-02-27T08:55:52.833Z,0.30
2023-02-27T08:58:19.713Z,0.40
2023-02-27T09:00:46.591Z,0.90
2023-02-27T09:03:13.467Z,0.70
2023-02-27T09:05:41.390Z,1.00
2023-02-27T09:08:07.945Z,0.90
2023-02-27T09:10:34.569Z,0.60
2023-02-27T09:13:01.639Z,0.60
2023-02-27T09:15:29.759Z,0.50
2023-02-27T09:18:01.806Z,0.50
2023-02-27T09:20:31.046Z,0.40
2023-02-27T09:22:59.160Z,0.50
2023-02-27T09:25:27.215Z,0.40
2023-02-27T09:27:54.909Z,0.60
2023-02-27T09:30:23.072Z,0.30
2023-02-27T09:32:50.469Z,0.30
2023-02-27T09:35:19.792Z,0.30
2023-02-27T09:37:47.764Z,0.20
2023-02-27T09:40:31.067Z,0.40
2023-02-27T09:43:07.928Z,0.30
2023-02-27T09:45:38.607Z,0.30
2023-02-27T09:48:42.498Z,0.30
2023-02-27T09:51:09.236Z,0.20
2023-02-27T09:53:41.898Z,0.20
2023-02-27T09:56:34.890Z,0.20
2023-02-27T09:59:31.007Z,0.30
2023-02-27T10:02:18.343Z,0.20
2023-02-27T10:05:13.478Z,0.20
2023-02-27T10:07:55.380Z,0.30
2023-02-27T10:10:39.929Z,0.30
2023-02-27T10:13:28.406Z,0.40
2023-02-27T10:15:57.490Z,0.10
2023-02-27T10:18:35.037Z,0.20
2023-02-27T10:21:24.478Z,0.20
2023-02-27T10:24:27.028Z,0.20
2023-02-27T10:27:01.834Z,0.20
2023-02-27T10:29:39.329Z,0.20
2023-02-27T10:32:24.658Z,0.20
2023-02-27T10:35:08.877Z,0.30
2023-02-27T10:37:51.611Z,0.20
2023-02-27T10:40:20.098Z,0.40
2023-02-27T10:42:48.070Z,0.40
2023-02-27T10:45:16.101Z,0.30
2023-02-27T10:47:43.779Z,0.20
2023-02-27T10:50:45.726Z,0.40
2023-02-27T10:53:27.297Z,0.20
2023-02-27T10:56:04.946Z,0.10
2023-02-27T10:58:35.345Z,0.20
2023-02-27T11:01:10.714Z,0.10
2023-02-27T11:03:41.863Z,0.20
2023-02-27T11:06:25.408Z,0.20
2023-02-27T11:09:28.789Z,0.30
2023-02-27T11:12:11.031Z,0.20
2023-02-27T11:14:53.541Z,0.30
2023-02-27T11:17:25.986Z,0.30
2023-02-27T11:19:52.516Z,0.40
2023-02-27T11:22:24.236Z,0.30
2023-02-27T11:25:15.812Z,0.20
2023-02-27T11:27:42.299Z,0.30
2023-02-27T11:30:27.943Z,0.30
2023-02-27T11:32:58.396Z,0.30
2023-02-27T11:35:33.974Z,0.30
2023-02-27T11:38:05.803Z,0.40
2023-02-27T11:40:38.753Z,0.50
2023-02-27T11:43:39.615Z,0.40
2023-02-27T11:46:40.670Z,0.30
2023-02-27T11:49:31.420Z,0.30
2023-02-27T11:52:23.278Z,0.30
2023-02-27T11:55:02.657Z,0.20
2023-02-27T11:57:39.428Z,0.20
2023-02-27T12:00:30.761Z,0.30
2023-02-27T12:03:24.594Z,0.20
2023-02-27T12:05:57.691Z,0.40
2023-02-27T12:08:42.217Z,0.10
2023-02-27T12:11:22.122Z,0.10
2023-02-27T12:14:18.647Z,0.10
2023-02-27T12:16:56.145Z,0.10
2023-02-27T12:20:01.464Z,0.10
2023-02-27T12:22:35.077Z,0.20
2023-02-27T12:25:18.748Z,0.30
2023-02-27T12:28:01.661Z,0.30
2023-02-27T12:30:39.672Z,0.20
2023-02-27T12:33:27.492Z,0.20
2023-02-27T12:36:01.282Z,0.20
2023-02-27T12:38:28.493Z,0.10
2023-02-27T12:41:30.049Z,0.10
2023-02-27T12:44:27.550Z,0.20
2023-02-27T12:47:10.633Z,0.50
2023-02-27T12:50:02.145Z,0.30
2023-02-27T12:52:54.239Z,0.20
2023-02-27T12:55:28.392Z,0.40
2023-02-27T12:58:22.392Z,0.20
2023-02-27T13:01:21.624Z,0.20
2023-02-27T13:03:59.493Z,0.20
2023-02-27T13:06:49.622Z,0.20
2023-02-27T13:09:37.087Z,0.30
2023-02-27T13:12:56.065Z,0.30
2023-02-27T13:15:36.096Z,0.10
2023-02-27T13:18:32.464Z,0.20
2023-02-27T13:21:18.388Z,0.20
2023-02-27T13:23:57.850Z,0.40
2023-02-27T13:26:39.166Z,0.20
2023-02-27T13:29:10.773Z,0.20
2023-02-27T13:31:56.479Z,0.20
2023-02-27T13:34:33.372Z,0.30
2023-02-27T13:37:08.897Z,0.20
2023-02-27T13:39:50.535Z,0.20
2023-02-27T13:42:30.103Z,0.20
2023-02-27T13:45:04.054Z,0.20
2023-02-27T13:47:30.436Z,0.40
2023-02-27T13:50:03.839Z,1.00
2023-02-27T13:52:35.406Z,0.70
2023-02-27T13:55:12.058Z,0.90
2023-02-27T13:57:39.112Z,0.30
2023-02-27T14:00:32.342Z,0.10
2023-02-27T14:03:15.803Z,0.40
2023-02-27T14:05:46.861Z,0.30
2023-02-27T14:08:18.723Z,0.60
2023-02-27T14:11:00.200Z,0.20
2023-02-27T14:13:45.238Z,0.10
2023-02-27T14:16:36.997Z,0.60
2023-02-27T14:19:15.877Z,0.20
2023-02-27T14:22:35.606Z,0.20
2023-02-27T14:25:21.365Z,0.10
2023-02-27T14:27:56.851Z,0.20
2023-02-27T14:30:31.476Z,0.30
2023-02-27T14:33:21.730Z,0.30
2023-02-27T14:36:08.043Z,0.20
2023-02-27T14:38:37.688Z,0.20
2023-02-27T14:41:32.219Z,0.40
2023-02-27T14:43:59.652Z,0.20
2023-02-27T14:46:38.170Z,0.30
2023-02-27T14:49:24.525Z,0.60
2023-02-27T14:51:51.102Z,0.10
2023-02-27T14:54:25.331Z,0.40
2023-02-27T14:56:56.701Z,0.80
2023-02-27T14:59:26.576Z,0.40
2023-02-27T15:01:56.456Z,0.60
2023-02-27T15:04:28.195Z,0.80
2023-02-27T15:06:57.475Z,0.30
2023-02-27T15:09:44.096Z,0.40
2023-02-27T15:12:18.321Z,0.50
2023-02-27T15:14:59.260Z,0.40
2023-02-27T15:17:38.340Z,0.30
2023-02-27T15:20:33.741Z,0.30
2023-02-27T15:23:27.278Z,0.50
2023-02-27T15:25:58.897Z,0.70
2023-02-27T15:28:38.595Z,0.50
2023-02-27T15:31:12.139Z,0.50
2023-02-27T15:33:42.462Z,0.30
2023-02-27T15:36:24.359Z,0.30
2023-02-27T15:39:07.909Z,0.40
2023-02-27T15:41:35.711Z,0.50
2023-02-27T15:44:03.611Z,0.60
2023-02-27T15:46:32.489Z,0.60
2023-02-27T15:48:59.512Z,0.40
2023-02-27T15:51:28.116Z,0.50
2023-02-27T15:53:59.668Z,0.60
2023-02-27T15:56:36.150Z,1.00
2023-02-27T15:59:04.738Z,1.00
2023-02-27T16:01:34.241Z,1.30
2023-02-27T16:04:14.410Z,1.10
2023-02-27T16:06:50.962Z,1.20
2023-02-27T16:09:28.263Z,1.10
2023-02-27T16:12:24.746Z,1.30
2023-02-27T16:15:32.802Z,1.20
2023-02-27T16:18:07.251Z,1.30
2023-02-27T16:20:44.377Z,1.00
2023-02-27T16:23:31.322Z,1.10
2023-02-27T16:26:22.933Z,1.00
2023-02-27T16:29:06.448Z,1.20
2023-02-27T16:31:46.786Z,1.50
2023-02-27T16:34:13.380Z,1.30
2023-02-27T16:36:51.158Z,1.30
2023-02-27T16:39:17.782Z,0.90
2023-02-27T16:41:44.310Z,1.00
2023-02-27T16:44:10.809Z,1.30
2023-02-27T16:46:37.373Z,1.20
2023-02-27T16:49:18.881Z,1.50
2023-02-27T16:51:46.528Z,1.20
2023-02-27T16:54:14.975Z,1.20
2023-02-27T16:56:43.673Z,1.00
2023-02-27T16:59:28.297Z,1.40
2023-02-27T17:01:56.571Z,1.50
2023-02-27T17:04:26.336Z,1.40
2023-02-27T17:06:56.537Z,1.60
2023-02-27T17:09:26.643Z,1.70
2023-02-27T17:11:54.703Z,1.90
2023-02-27T17:14:22.829Z,2.00
2023-02-27T17:16:49.568Z,3.00
2023-02-27T17:19:16.148Z,2.20
2023-02-27T17:21:42.718Z,2.10
2023-02-27T17:24:10.343Z,2.40
2023-02-27T17:26:37.088Z,2.80
2023-02-27T17:29:04.640Z,2.60
2023-02-27T17:31:31.563Z,2.60
2023-02-27T17:33:58.208Z,2.80
2023-02-27T17:36:25.291Z,2.50
2023-02-27T17:39:00.016Z,2.70
2023-02-27T17:41:29.287Z,2.90
2023-02-27T17:43:58.555Z,3.80
2023-02-27T17:46:27.906Z,3.80
2023-02-27T17:48:59.477Z,5.70
2023-02-27T17:51:29.970Z,6.20
2023-02-27T17:53:59.872Z,5.70
2023-02-27T17:56:26.836Z,9.40
2023-02-27T17:58:54.322Z,8.00
2023-02-27T18:01:25.079Z,8.20
2023-02-27T18:03:56.973Z,8.00
2023-02-27T18:06:24.756Z,8.90
2023-02-27T18:08:51.340Z,8.60
2023-02-27T18:11:21.040Z,7.70
2023-02-27T18:13:49.907Z,7.70
2023-02-27T18:16:18.369Z,6.80
2023-02-27T18:18:45.238Z,7.60
2023-02-27T18:21:19.625Z,7.70
2023-02-27T18:23:47.604Z,6.00
2023-02-27T18:26:30.790Z,9.70
2023-02-27T18:29:02.256Z,9.50
2023-02-27T18:31:37.206Z,10.10
2023-02-27T18:34:04.626Z,10.40
2023-02-27T18:36:32.268Z,9.30
2023-02-27T18:39:00.150Z,9.40
2023-02-27T18:41:28.730Z,12.30
2023-02-27T18:43:55.376Z,10.80
2023-02-27T18:46:22.068Z,10.30
2023-02-27T18:48:48.652Z,12.30
2023-02-27T18:51:16.696Z,11.80
2023-02-27T18:53:48.039Z,11.30
2023-02-27T18:56:18.692Z,11.30
2023-02-27T18:58:45.864Z,11.40
2023-02-27T19:01:27.655Z,12.00
2023-02-27T19:03:59.787Z,11.80
2023-02-27T19:06:27.532Z,11.50
2023-02-27T19:08:54.335Z,12.60
2023-02-27T19:11:35.059Z,12.80
2023-02-27T19:14:07.366Z,13.20
2023-02-27T19:16:34.869Z,13.70
2023-02-27T19:19:04.373Z,14.90
2023-02-27T19:21:32.213Z,14.40
2023-02-27T19:24:00.365Z,14.40
2023-02-27T19:26:27.948Z,13.60
2023-02-27T19:28:55.661Z,15.10
2023-02-27T19:31:23.930Z,12.40
2023-02-27T19:33:51.252Z,13.50
2023-02-27T19:36:21.137Z,14.30
2023-02-27T19:38:48.669Z,13.90
2023-02-27T19:41:17.070Z,14.20
2023-02-27T19:43:48.681Z,15.30
2023-02-27T19:46:21.771Z,15.60
2023-02-27T19:48:48.347Z,15.00
2023-02-27T19:51:16.271Z,14.80
2023-02-27T19:53:47.661Z,13.10
2023-02-27T19:56:19.162Z,10.80
2023-02-27T19:58:49.986Z,9.50
2023-02-27T20:01:27.957Z,12.00
2023-02-27T20:03:55.684Z,11.50
2023-02-27T20:06:25.436Z,10.60
2023-02-27T20:08:53.611Z,10.60
2023-02-27T20:11:21.124Z,9.80
2023-02-27T20:13:50.316Z,8.90
2023-02-27T20:16:21.824Z,6.60
2023-02-27T20:18:49.520Z,6.40
2023-02-27T20:21:21.611Z,7.60
2023-02-27T20:23:51.129Z,6.70
2023-02-27T20:26:26.877Z,9.50
2023-02-27T20:29:03.062Z,8.80
2023-02-27T20:31:32.479Z,7.50
2023-02-27T20:34:01.373Z,7.70
2023-02-27T20:36:28.458Z,10.60
2023-02-27T20:38:55.127Z,10.10
2023-02-27T20:41:25.265Z,10.10
2023-02-27T20:43:56.041Z,7.70
2023-02-27T20:46:27.800Z,11.00
2023-02-27T20:49:00.012Z,9.60
2023-02-27T20:51:35.415Z,7.70
2023-02-27T20:54:07.240Z,10.90
2023-02-27T20:56:40.409Z,10.40
2023-02-27T20:59:12.854Z,10.00
2023-02-27T21:01:41.275Z,10.10
2023-02-27T21:04:08.817Z,10.60
2023-02-27T21:06:35.384Z,11.30
2023-02-27T21:09:05.644Z,11.90
2023-02-27T21:11:33.259Z,13.50
2023-02-27T21:14:08.448Z,11.70
2023-02-27T21:16:36.186Z,8.00
2023-02-27T21:19:03.653Z,9.60
2023-02-27T21:21:33.442Z,9.70
2023-02-27T21:24:00.608Z,11.00
2023-02-27T21:26:35.473Z,11.60
2023-02-27T21:29:07.940Z,12.90
2023-02-27T21:31:36.780Z,11.90
2023-02-27T21:34:08.926Z,10.30
2023-02-27T21:36:43.448Z,9.90
2023-02-27T21:39:24.832Z,10.90
2023-02-27T21:41:52.247Z,9.80
2023-02-27T21:44:24.427Z,12.50
2023-02-27T21:46:52.918Z,10.10
2023-02-27T21:49:23.314Z,12.90
2023-02-27T21:51:50.487Z,13.40
2023-02-27T21:54:18.472Z,16.10
2023-02-27T21:56:47.352Z,16.00
2023-02-27T21:59:16.288Z,13.90
2023-02-27T22:01:46.686Z,16.20
2023-02-27T22:04:17.198Z,16.10
2023-02-27T22:06:44.074Z,16.30
2023-02-27T22:09:10.553Z,20.90
2023-02-27T22:11:37.171Z,21.30
2023-02-27T22:14:05.418Z,20.00
2023-02-27T22:16:31.993Z,20.70
2023-02-27T22:18:58.797Z,21.50
2023-02-27T22:21:27.409Z,17.70
2023-02-27T22:23:57.093Z,15.90
2023-02-27T22:26:27.538Z,17.90
2023-02-27T22:28:58.529Z,19.70
2023-02-27T22:31:33.342Z,18.90
2023-02-27T22:34:20.376Z,18.30
2023-02-27T22:36:51.437Z,15.50
2023-02-27T22:39:19.154Z,14.00
2023-02-27T22:41:45.714Z,14.00
2023-02-27T22:44:14.926Z,17.30
2023-02-27T22:46:46.594Z,18.50
2023-02-27T22:49:21.657Z,12.70
2023-02-27T22:51:51.705Z,10.80
2023-02-27T22:54:21.183Z,14.20
2023-02-27T22:56:51.862Z,18.30
2023-02-27T22:59:19.462Z,19.10
2023-02-27T23:01:48.345Z,16.70
2023-02-27T23:04:16.541Z,10.00
2023-02-27T23:06:43.633Z,17.10
2023-02-27T23:09:20.876Z,20.20
2023-02-27T23:11:47.520Z,18.50
2023-02-27T23:14:14.908Z,14.10
2023-02-27T23:16:44.928Z,14.40
2023-02-27T23:19:18.329Z,11.80
2023-02-27T23:21:44.770Z,15.90
2023-02-27T23:24:15.287Z,15.70
2023-02-27T23:26:46.529Z,11.60
2023-02-27T23:29:13.665Z,13.10
2023-02-27T23:31:41.561Z,21.20
2023-02-27T23:34:09.162Z,20.90
2023-02-27T23:36:37.840Z,9.80
2023-02-27T23:39:07.228Z,19.50
2023-02-27T23:41:35.262Z,11.70
2023-02-27T23:44:02.072Z,13.30
2023-02-27T23:46:29.687Z,10.90
2023-02-27T23:48:58.446Z,14.50
2023-02-27T23:51:25.275Z,16.30
2023-02-27T23:53:52.160Z,17.30
2023-02-27T23:56:28.813Z,16.90
2023-02-27T23:59:00.570Z,11.60
